createdAt,value
2017-09-10T09:26:04.050Z,2632.00
2017-09-10T09:27:03.780Z,2640.00
2017-09-10T09:28:03.779Z,2724.00
2017-09-10T09:29:03.794Z,2936.00
2017-09-10T09:30:03.825Z,3236.00
2017-09-10T09:31:03.884Z,3560.00
2017-09-10T09:32:03.905Z,3808.00
2017-09-10T09:33:04.301Z,3916.00
2017-09-10T09:34:04.048Z,4028.00
2017-09-10T09:35:04.080Z,4428.00
2017-09-10T09:36:04.111Z,4092.00
2017-09-10T09:37:04.158Z,3620.00
2017-09-10T09:38:04.342Z,3972.00
2017-09-10T09:39:04.217Z,4724.00
2017-09-10T09:40:04.544Z,4600.00
2017-09-10T09:41:04.231Z,3672.00
2017-09-10T09:42:04.266Z,3372.00
2017-09-10T09:43:04.356Z,3408.00
2017-09-10T09:44:04.390Z,3468.00
2017-09-10T09:45:04.371Z,2800.00
2017-09-10T09:46:04.500Z,2804.00
2017-09-10T09:47:04.826Z,2876.00
2017-09-10T09:48:04.537Z,2680.00
2017-09-10T09:49:04.594Z,2896.00
2017-09-10T09:50:04.607Z,2640.00
2017-09-10T09:51:04.596Z,2668.00
2017-09-10T09:52:04.631Z,2648.00
2017-09-10T09:53:04.727Z,2576.00
2017-09-10T09:54:05.085Z,2756.00
2017-09-10T09:55:04.760Z,3092.00
2017-09-10T09:56:04.789Z,3524.00
2017-09-10T09:57:04.887Z,3704.00
2017-09-10T09:58:05.024Z,3672.00
2017-09-10T09:59:04.912Z,3620.00
2017-09-10T10:00:04.978Z,3284.00
2017-09-10T10:01:05.327Z,3216.00
2017-09-10T10:02:05.010Z,3260.00
2017-09-10T10:03:05.115Z,3528.00
2017-09-10T10:04:05.083Z,3920.00
2017-09-10T10:06:05.222Z,4736.00
2017-09-10T10:07:05.229Z,5012.00
2017-09-10T10:08:05.586Z,4440.00
2017-09-10T10:09:05.269Z,3980.00
2017-09-10T10:10:05.380Z,3856.00
2017-09-10T10:11:05.404Z,4020.00
2017-09-10T10:12:05.362Z,4120.00
2017-09-10T10:13:05.494Z,4224.00
2017-09-10T10:14:05.903Z,4012.00
2017-09-10T10:15:05.645Z,3472.00
2017-09-10T10:16:05.572Z,2880.00
2017-09-10T10:17:05.679Z,2728.00
2017-09-10T10:18:05.926Z,2628.00
2017-09-10T10:19:05.806Z,2516.00
2017-09-10T10:20:06.229Z,2532.00
2017-09-10T10:21:05.943Z,2508.00
2017-09-10T10:22:05.871Z,2496.00
2017-09-10T10:23:06.194Z,2260.00
2017-09-10T10:24:06.080Z,2296.00
2017-09-10T10:25:06.071Z,2384.00
2017-09-10T10:26:06.577Z,2532.00
2017-09-10T10:27:06.011Z,2616.00
2017-09-10T10:28:06.821Z,2688.00
2017-09-10T10:29:06.242Z,2788.00
2017-09-10T10:30:06.254Z,2724.00
2017-09-10T10:31:06.134Z,2808.00
2017-09-10T10:32:06.457Z,2848.00
2017-09-10T10:33:06.201Z,3028.00
2017-09-10T10:34:06.234Z,2904.00
2017-09-10T10:35:06.276Z,2532.00
2017-09-10T10:36:06.330Z,2684.00
2017-09-10T10:37:06.275Z,2752.00
2017-09-10T10:38:06.665Z,2544.00
2017-09-10T10:39:06.384Z,2356.00
2017-09-10T10:40:06.449Z,2348.00
2017-09-10T10:41:06.433Z,2368.00
2017-09-10T10:42:06.504Z,2568.00
2017-09-10T10:43:06.540Z,2400.00
2017-09-10T10:44:06.901Z,2412.00
2017-09-10T10:45:06.614Z,2464.00
2017-09-10T10:46:06.651Z,2496.00
2017-09-10T10:47:06.637Z,2560.00
2017-09-10T10:48:06.681Z,2624.00
2017-09-10T10:49:06.713Z,2732.00
2017-09-10T10:50:07.109Z,2800.00
2017-09-10T10:51:06.848Z,2744.00
2017-09-10T10:52:06.888Z,2780.00
2017-09-10T10:53:06.871Z,2856.00
2017-09-10T10:54:06.978Z,2680.00
2017-09-10T10:55:07.094Z,2972.00
2017-09-10T10:57:07.508Z,2836.00
2017-09-10T10:58:07.192Z,2908.00
2017-09-10T10:59:07.394Z,2996.00
2017-09-10T11:00:07.197Z,3128.00
2017-09-10T11:01:07.203Z,3392.00
2017-09-10T11:02:07.447Z,3336.00
2017-09-10T11:03:08.160Z,3832.00
2017-09-10T11:04:07.416Z,4204.00
2017-09-10T11:05:07.451Z,4568.00
2017-09-10T11:06:07.417Z,4960.00
2017-09-10T11:07:07.514Z,5688.00
2017-09-10T11:08:07.451Z,6104.00
2017-09-10T11:09:07.803Z,6296.00
2017-09-10T11:10:07.516Z,5860.00
2017-09-10T11:11:07.711Z,5356.00
2017-09-10T11:12:07.568Z,4904.00
2017-09-10T11:13:07.708Z,5116.00
2017-09-10T11:14:07.671Z,5504.00
2017-09-10T11:15:08.024Z,5952.00
2017-09-10T11:16:07.766Z,5928.00
2017-09-10T11:17:07.738Z,5984.00
2017-09-10T11:18:07.821Z,6248.00
2017-09-10T11:19:07.862Z,6488.00
2017-09-10T11:20:07.863Z,6632.00
2017-09-10T11:21:08.233Z,6400.00
2017-09-10T11:22:07.932Z,6628.00
2017-09-10T11:23:08.169Z,7252.00
2017-09-10T11:24:07.998Z,7588.00
2017-09-10T11:25:08.090Z,7600.00
2017-09-10T11:26:08.061Z,7236.00
2017-09-10T11:27:08.507Z,6456.00
2017-09-10T11:28:08.152Z,5888.00
2017-09-10T11:29:08.240Z,5212.00
2017-09-10T11:30:08.316Z,4960.00
2017-09-10T11:31:08.305Z,5140.00
2017-09-10T11:32:08.316Z,5188.00
2017-09-10T11:33:08.762Z,5280.00
2017-09-10T11:34:08.496Z,5712.00
2017-09-10T11:35:08.480Z,5904.00
2017-09-10T11:36:08.544Z,5428.00
2017-09-10T11:37:08.534Z,5032.00
2017-09-10T11:38:08.562Z,4816.00
2017-09-10T11:39:08.621Z,4656.00
2017-09-10T11:40:09.199Z,4436.00
2017-09-10T11:41:08.689Z,4240.00
2017-09-10T11:42:08.740Z,4124.00
2017-09-10T11:43:08.794Z,4052.00
2017-09-10T11:44:08.891Z,3824.00
2017-09-10T11:45:08.842Z,3700.00
2017-09-10T11:46:08.889Z,3776.00
2017-09-10T11:47:09.257Z,4076.00
2017-09-10T11:48:09.104Z,4204.00
2017-09-10T11:49:09.027Z,4412.00
2017-09-10T11:50:09.021Z,4884.00
2017-09-10T11:51:09.047Z,5516.00
2017-09-10T11:52:09.131Z,6020.00
2017-09-10T11:53:09.182Z,6060.00
2017-09-10T11:54:09.499Z,5448.00
2017-09-10T11:55:09.207Z,4716.00
2017-09-10T11:56:09.294Z,4052.00
2017-09-10T11:57:09.296Z,3476.00
2017-09-10T11:58:09.353Z,3100.00
2017-09-10T11:59:09.400Z,2868.00
2017-09-10T12:00:09.385Z,2728.00
2017-09-10T12:01:10.255Z,2708.00
2017-09-10T12:02:09.535Z,2972.00
2017-09-10T12:03:09.537Z,3364.00
2017-09-10T12:04:09.652Z,3672.00
2017-09-10T12:05:09.607Z,3592.00
2017-09-10T12:06:09.588Z,3132.00
2017-09-10T12:07:09.645Z,2788.00
2017-09-10T12:08:10.246Z,2676.00
2017-09-10T12:09:09.801Z,2848.00
2017-09-10T12:10:09.755Z,3216.00
2017-09-10T12:11:10.010Z,3588.00
2017-09-10T12:12:10.069Z,3928.00
2017-09-10T12:13:09.862Z,4100.00
2017-09-10T12:14:10.004Z,4116.00
2017-09-10T12:15:10.334Z,4448.00
2017-09-10T12:16:10.003Z,4956.00
2017-09-10T12:17:10.043Z,5660.00
2017-09-10T12:18:10.058Z,6516.00
2017-09-10T12:19:10.112Z,7292.00
2017-09-10T12:20:10.145Z,7908.00
2017-09-10T12:21:10.162Z,7828.00
2017-09-10T12:22:10.587Z,7408.00
2017-09-10T12:23:10.285Z,7216.00
2017-09-10T12:24:10.274Z,7180.00
2017-09-10T12:25:10.298Z,7076.00
2017-09-10T12:26:10.361Z,6924.00
2017-09-10T12:27:10.382Z,6512.00
2017-09-10T12:28:10.422Z,5768.00
2017-09-10T12:29:10.880Z,5416.00
2017-09-10T12:30:10.529Z,5436.00
2017-09-10T12:31:10.585Z,5300.00
2017-09-10T12:32:10.609Z,5688.00
2017-09-10T12:33:10.633Z,6184.00
2017-09-10T12:34:10.696Z,6200.00
2017-09-10T12:35:10.697Z,6512.00
2017-09-10T12:36:11.823Z,6888.00
2017-09-10T12:38:10.795Z,7040.00
2017-09-10T12:39:10.875Z,7832.00
2017-09-10T12:40:10.797Z,9508.00
2017-09-10T12:41:10.878Z,10340.00
2017-09-10T12:42:10.950Z,10708.00
2017-09-10T12:43:11.262Z,10816.00
2017-09-10T12:44:11.000Z,10840.00
2017-09-10T12:45:11.039Z,10268.00
2017-09-10T12:46:11.037Z,10044.00
2017-09-10T12:47:11.114Z,10512.00
2017-09-10T12:48:11.395Z,10252.00
2017-09-10T12:49:11.210Z,9840.00
2017-09-10T12:51:11.521Z,9200.00
2017-09-10T12:52:11.341Z,8752.00
2017-09-10T12:53:11.316Z,7888.00
2017-09-10T12:55:11.383Z,6524.00
2017-09-10T12:56:11.411Z,6116.00
2017-09-10T12:57:11.448Z,5956.00
2017-09-10T12:58:12.885Z,5280.00
2017-09-10T12:59:11.584Z,4460.00
2017-09-10T13:00:11.620Z,4424.00
2017-09-10T13:01:11.665Z,4648.00
2017-09-10T13:02:12.779Z,5132.00
2017-09-10T13:03:11.765Z,5740.00
2017-09-10T13:04:11.808Z,14032.00
2017-09-10T13:05:12.206Z,8692.00
2017-09-10T13:06:11.941Z,10204.00
2017-09-10T13:07:12.064Z,9392.00
2017-09-10T13:08:11.922Z,8928.00
2017-09-10T13:09:11.968Z,8068.00
2017-09-10T13:10:11.944Z,7072.00
2017-09-10T13:11:12.314Z,6496.00
2017-09-10T13:12:12.059Z,6388.00
2017-09-10T13:13:12.051Z,5988.00
2017-09-10T13:14:12.075Z,5380.00
2017-09-10T13:15:12.122Z,5184.00
2017-09-10T13:16:12.252Z,5176.00
2017-09-10T13:17:12.550Z,5976.00
2017-09-10T13:18:12.230Z,7680.00
2017-09-10T13:19:12.310Z,22528.00
2017-09-10T13:20:12.471Z,23392.00
2017-09-10T13:21:12.427Z,24224.00
2017-09-10T13:22:12.435Z,25664.00
2017-09-10T13:23:12.780Z,8924.00
2017-09-10T13:24:12.449Z,18952.00
2017-09-10T13:25:12.485Z,27584.00
2017-09-10T13:26:12.578Z,28032.00
2017-09-10T13:27:12.567Z,28320.00
2017-09-10T13:28:12.667Z,28256.00
2017-09-10T13:29:12.987Z,28864.00
2017-09-10T13:30:12.725Z,13812.00
2017-09-10T13:31:12.737Z,8472.00
2017-09-10T13:32:12.803Z,13824.00
2017-09-10T13:33:12.834Z,10272.00
2017-09-10T13:34:12.881Z,8944.00
2017-09-10T13:35:13.221Z,6932.00
2017-09-10T13:36:12.917Z,8792.00
2017-09-10T13:37:12.963Z,8640.00
2017-09-10T13:38:13.040Z,7456.00
2017-09-10T13:39:13.074Z,6060.00
2017-09-10T13:40:13.152Z,5692.00
2017-09-10T13:41:13.472Z,5272.00
2017-09-10T13:42:13.166Z,5176.00
2017-09-10T13:43:13.260Z,5532.00
2017-09-10T13:44:13.263Z,5920.00
2017-09-10T13:45:13.350Z,5940.00
2017-09-10T13:46:13.300Z,5112.00
2017-09-10T13:47:13.656Z,4520.00
2017-09-10T13:48:13.426Z,4032.00
2017-09-10T13:49:13.460Z,3764.00
2017-09-10T13:50:13.466Z,4720.00
2017-09-10T13:51:13.509Z,4200.00
2017-09-10T13:52:13.601Z,4544.00
2017-09-10T13:53:13.924Z,5268.00
2017-09-10T13:54:13.754Z,6176.00
2017-09-10T13:55:13.727Z,7692.00
2017-09-10T13:56:13.675Z,31584.00
2017-09-10T13:57:13.761Z,7616.00
2017-09-10T13:58:13.778Z,6648.00
2017-09-10T13:59:14.160Z,5304.00
2017-09-10T14:00:13.863Z,4516.00
2017-09-10T14:01:13.919Z,4140.00
2017-09-10T14:02:13.932Z,4160.00
2017-09-10T14:03:14.016Z,4532.00
2017-09-10T14:04:13.984Z,5036.00
2017-09-10T14:05:14.373Z,13444.00
2017-09-10T14:06:14.071Z,6240.00
2017-09-10T14:07:14.163Z,5788.00
2017-09-10T14:08:14.202Z,5192.00
2017-09-10T14:09:14.287Z,4844.00
2017-09-10T14:10:14.272Z,5080.00
2017-09-10T14:11:14.599Z,6248.00
2017-09-10T14:12:14.371Z,13064.00
2017-09-10T14:13:14.398Z,13444.00
2017-09-10T14:14:14.436Z,7728.00
2017-09-10T14:15:14.586Z,7660.00
2017-09-10T14:16:14.449Z,6692.00
2017-09-10T14:17:14.855Z,5856.00
2017-09-10T14:18:14.577Z,4936.00
2017-09-10T14:19:14.629Z,4720.00
2017-09-10T14:20:14.675Z,4560.00
2017-09-10T14:21:14.705Z,4464.00
2017-09-10T14:22:14.759Z,4396.00
2017-09-10T14:23:15.086Z,3992.00
2017-09-10T14:24:14.768Z,4336.00
2017-09-10T14:25:14.894Z,5388.00
2017-09-10T14:26:14.838Z,6020.00
2017-09-10T14:27:14.920Z,5860.00
2017-09-10T14:28:14.968Z,6156.00
2017-09-10T14:29:15.017Z,5952.00
2017-09-10T14:30:15.334Z,5408.00
2017-09-10T14:31:15.080Z,5044.00
2017-09-10T14:32:15.077Z,4900.00
2017-09-10T14:33:15.120Z,7120.00
2017-09-10T14:34:15.171Z,5828.00
2017-09-10T14:35:15.248Z,6716.00
2017-09-10T14:36:15.229Z,23744.00
2017-09-10T14:37:15.627Z,8692.00
2017-09-10T14:38:15.334Z,9676.00
2017-09-10T14:39:15.335Z,10540.00
2017-09-10T14:40:15.459Z,10476.00
2017-09-10T14:41:15.425Z,9800.00
2017-09-10T14:42:15.425Z,31840.00
2017-09-10T14:43:15.468Z,9948.00
2017-09-10T14:44:15.864Z,8616.00
2017-09-10T14:45:15.620Z,7320.00
2017-09-10T14:46:15.643Z,6196.00
2017-09-10T14:47:15.640Z,5448.00
2017-09-10T14:48:15.779Z,5340.00
2017-09-10T14:49:15.715Z,5228.00
2017-09-10T14:50:15.901Z,5544.00
2017-09-10T14:51:16.168Z,5352.00
2017-09-10T14:52:15.880Z,4404.00
2017-09-10T14:53:15.918Z,4176.00
2017-09-10T14:54:15.949Z,3756.00
2017-09-10T14:55:15.981Z,3440.00
2017-09-10T14:56:16.036Z,3232.00
2017-09-10T14:57:16.221Z,3204.00
2017-09-10T14:58:16.550Z,2964.00
2017-09-10T14:59:16.182Z,2464.00
2017-09-10T15:00:17.226Z,2132.00
2017-09-10T15:01:18.360Z,2236.00
2017-09-10T15:03:23.894Z,3440.00
2017-09-10T15:04:18.381Z,3800.00
2017-09-10T15:07:23.864Z,3224.00
2017-09-10T15:08:20.756Z,3776.00
2017-09-10T15:10:17.701Z,4820.00
2017-09-10T15:11:18.125Z,4824.00
2017-09-10T15:14:17.735Z,3100.00
2017-09-10T15:16:20.919Z,2616.00
2017-09-10T15:17:19.182Z,2268.00
2017-09-10T15:20:18.170Z,1752.00
2017-09-10T15:22:17.021Z,1868.00
2017-09-10T15:23:17.144Z,2044.00
2017-09-10T15:24:17.096Z,2128.00
2017-09-10T15:25:17.088Z,2372.00
2017-09-10T15:26:17.479Z,2480.00
2017-09-10T15:27:17.156Z,2996.00
2017-09-10T15:28:17.363Z,3376.00
2017-09-10T15:29:17.266Z,3496.00
2017-09-10T15:30:17.251Z,3244.00
2017-09-10T15:31:17.298Z,2552.00
2017-09-10T15:32:17.336Z,1948.00
2017-09-10T15:33:17.733Z,2016.00
2017-09-10T15:34:17.400Z,1732.00
2017-09-10T15:35:17.444Z,1896.00
2017-09-10T15:36:17.484Z,2268.00
2017-09-10T15:37:17.552Z,2496.00
2017-09-10T15:38:17.588Z,2752.00
2017-09-10T15:39:17.654Z,2884.00
2017-09-10T15:40:17.920Z,2780.00
2017-09-10T15:41:17.698Z,2180.00
2017-09-10T15:42:17.770Z,1604.00
2017-09-10T15:43:17.799Z,3824.00
2017-09-10T15:44:17.761Z,3596.00
2017-09-10T15:45:17.891Z,2744.00
2017-09-10T15:46:17.884Z,3032.00
2017-09-10T15:47:18.255Z,3428.00
2017-09-10T15:48:17.943Z,3736.00
2017-09-10T15:49:17.955Z,3784.00
2017-09-10T15:50:18.017Z,3472.00
2017-09-10T15:51:18.042Z,2768.00
2017-09-10T15:52:18.130Z,2228.00
2017-09-10T15:53:18.118Z,2172.00
2017-09-10T15:54:18.509Z,2288.00
2017-09-10T15:55:18.284Z,2424.00
2017-09-10T15:56:18.256Z,2236.00
2017-09-10T15:57:18.313Z,1856.00
2017-09-10T15:58:18.319Z,1540.00
2017-09-10T15:59:18.391Z,1464.00
2017-09-10T16:00:18.761Z,1448.00
2017-09-10T16:01:18.384Z,1376.00
2017-09-10T16:02:18.504Z,1288.00
2017-09-10T16:03:18.542Z,1332.00
2017-09-10T16:04:18.513Z,1376.00
2017-09-10T16:05:18.630Z,1508.00
2017-09-10T16:06:18.943Z,1620.00
2017-09-10T16:07:18.638Z,1680.00
2017-09-10T16:08:18.657Z,1684.00
2017-09-10T16:09:18.692Z,1760.00
2017-09-10T16:10:18.775Z,1944.00
2017-09-10T16:11:18.744Z,2232.00
2017-09-10T16:12:19.214Z,2412.00
2017-09-10T16:13:18.880Z,2608.00
2017-09-10T16:14:18.858Z,2600.00
2017-09-10T16:15:18.907Z,2556.00
2017-09-10T16:16:19.012Z,2756.00
2017-09-10T16:17:19.073Z,3312.00
2017-09-10T16:18:19.396Z,7516.00
2017-09-10T16:19:19.084Z,3964.00
2017-09-10T16:20:19.089Z,4012.00
2017-09-10T16:21:19.109Z,4160.00
2017-09-10T16:22:19.252Z,3668.00
2017-09-10T16:23:19.197Z,3552.00
2017-09-10T16:24:19.807Z,3884.00
2017-09-10T16:25:19.316Z,3492.00
2017-09-10T16:26:19.358Z,3084.00
2017-09-10T16:27:19.375Z,2672.00
2017-09-10T16:28:19.412Z,2336.00
2017-09-10T16:29:19.481Z,2124.00
2017-09-10T16:30:19.821Z,1952.00
2017-09-10T16:31:19.477Z,1836.00
2017-09-10T16:32:19.540Z,1792.00
2017-09-10T16:33:19.578Z,1700.00
2017-09-10T16:34:19.583Z,1548.00
2017-09-10T16:35:19.696Z,1564.00
2017-09-10T16:36:20.191Z,1760.00
2017-09-10T16:37:19.779Z,2080.00
2017-09-10T16:38:19.936Z,2396.00
2017-09-10T16:39:19.768Z,2432.00
2017-09-10T16:40:19.850Z,2384.00
2017-09-10T16:41:19.929Z,2264.00
2017-09-10T16:42:20.293Z,2020.00
2017-09-10T16:43:20.042Z,1916.00
2017-09-10T16:44:19.983Z,1904.00
2017-09-10T16:45:20.110Z,1812.00
2017-09-10T16:46:20.084Z,1692.00
2017-09-10T16:47:20.082Z,1668.00
2017-09-10T16:48:20.450Z,1684.00
2017-09-10T16:50:20.171Z,1532.00
2017-09-10T16:51:20.278Z,1376.00
2017-09-10T16:52:20.266Z,1864.00
2017-09-10T16:53:20.281Z,2284.00
2017-09-10T16:54:20.667Z,2920.00
2017-09-10T16:55:20.430Z,2908.00
2017-09-10T16:56:20.536Z,2688.00
2017-09-10T16:57:20.460Z,2692.00
2017-09-10T16:58:20.530Z,1804.00
2017-09-10T16:59:20.567Z,1760.00
2017-09-10T17:00:21.081Z,2040.00
2017-09-10T17:01:20.618Z,2336.00
2017-09-10T17:02:20.627Z,1956.00
2017-09-10T17:03:20.680Z,1716.00
2017-09-10T17:04:20.695Z,1636.00
2017-09-10T17:05:20.768Z,1576.00
2017-09-10T17:06:21.155Z,1532.00
2017-09-10T17:07:20.856Z,1508.00
2017-09-10T17:08:20.914Z,1620.00
2017-09-10T17:09:20.942Z,1576.00
2017-09-10T17:10:20.912Z,1560.00
2017-09-10T17:11:21.402Z,1528.00
2017-09-10T17:12:21.400Z,1488.00
2017-09-10T17:13:21.083Z,1452.00
2017-09-10T17:14:21.097Z,1416.00
2017-09-10T17:15:21.142Z,1372.00
2017-09-10T17:16:21.137Z,1348.00
2017-09-10T17:17:21.156Z,1304.00
2017-09-10T17:18:21.275Z,1264.00
2017-09-10T17:19:21.597Z,1164.00
2017-09-10T17:20:21.366Z,1064.00
2017-09-10T17:21:21.356Z,972.00
2017-09-10T17:22:21.392Z,916.00
2017-09-10T17:23:21.449Z,928.00
2017-09-10T17:24:21.463Z,972.00
2017-09-10T17:25:21.533Z,1012.00
2017-09-10T17:26:21.837Z,1004.00
2017-09-10T17:27:21.585Z,964.00
2017-09-10T17:28:21.818Z,924.00
2017-09-10T17:29:21.736Z,880.00
2017-09-10T17:30:21.677Z,844.00
2017-09-10T17:31:21.901Z,812.00
2017-09-10T17:32:21.748Z,780.00
2017-09-10T17:33:22.112Z,760.00
2017-09-10T17:34:21.778Z,736.00
2017-09-10T17:35:21.892Z,704.00
2017-09-10T17:36:21.851Z,668.00
2017-09-10T17:37:21.886Z,632.00
2017-09-10T17:38:21.935Z,596.00
2017-09-10T17:39:21.961Z,564.00
2017-09-10T17:40:22.359Z,536.00
2017-09-10T17:41:22.025Z,508.00
2017-09-10T17:42:22.131Z,480.00
2017-09-10T17:43:22.116Z,448.00
2017-09-10T17:44:22.151Z,412.00
2017-09-10T17:45:22.245Z,372.00
2017-09-10T17:46:22.282Z,332.00
2017-09-10T17:47:22.619Z,300.00
2017-09-10T17:48:22.447Z,268.00
2017-09-10T17:49:22.401Z,244.00
2017-09-10T17:50:22.349Z,216.00
2017-09-10T17:51:22.482Z,196.00
2017-09-10T17:52:22.419Z,176.00
2017-09-10T17:53:22.454Z,156.00
2017-09-10T17:54:22.845Z,140.00
2017-09-10T17:55:22.534Z,124.00
2017-09-10T17:56:22.618Z,112.00
2017-09-10T17:57:22.650Z,100.00
2017-09-10T17:58:22.687Z,96.00
2017-09-10T17:59:22.726Z,84.00
2017-09-10T18:00:22.729Z,80.00
2017-09-10T18:01:23.098Z,72.00
2017-09-10T18:02:22.846Z,64.00
2017-09-10T18:03:22.908Z,64.00
2017-09-10T18:04:22.930Z,56.00
2017-09-10T18:05:22.959Z,52.00
2017-09-10T18:06:22.998Z,48.00
2017-09-10T18:07:23.062Z,44.00
2017-09-10T18:08:23.372Z,40.00
2017-09-10T18:09:23.145Z,36.00
2017-09-10T18:10:23.147Z,32.00
2017-09-10T18:11:23.226Z,28.00
2017-09-10T18:12:23.209Z,24.00
2017-09-10T18:13:23.288Z,24.00
2017-09-10T18:14:23.315Z,20.00
2017-09-10T18:15:23.709Z,16.00
2017-09-10T18:16:23.339Z,16.00
2017-09-10T18:17:23.396Z,12.00
2017-09-10T18:19:23.504Z,8.00
2017-09-10T18:20:23.562Z,4.00
2017-09-10T18:21:23.764Z,4.00
2017-09-10T18:22:23.865Z,4.00
2017-09-10T18:23:23.681Z,4.00
2017-09-10T18:24:23.662Z,4.00
2017-09-10T18:25:23.718Z,4.00
2017-09-10T18:26:23.715Z,4.00
2017-09-10T18:27:23.692Z,0.00
2017-09-10T18:28:23.784Z,0.00
2017-09-10T18:29:24.251Z,0.00
2017-09-10T18:30:23.950Z,0.00
2017-09-10T18:32:23.935Z,0.00
2017-09-10T18:33:24.013Z,0.00
2017-09-10T18:34:24.036Z,0.00
2017-09-10T18:35:24.032Z,0.00
2017-09-10T18:36:24.446Z,0.00
2017-09-10T18:37:24.184Z,0.00
2017-09-10T18:38:24.221Z,0.00
2017-09-10T18:39:24.241Z,0.00
2017-09-10T18:40:24.307Z,0.00
2017-09-10T18:41:24.278Z,0.00
2017-09-10T18:42:24.669Z,0.00
2017-09-10T18:43:24.895Z,0.00
2017-09-10T18:44:24.497Z,0.00
2017-09-10T18:45:25.712Z,0.00
2017-09-10T18:46:24.424Z,0.00
2017-09-10T18:47:24.621Z,0.00
2017-09-10T18:48:24.487Z,0.00
2017-09-10T18:49:24.969Z,0.00
2017-09-10T18:50:24.636Z,0.00
2017-09-10T18:52:24.636Z,0.00
2017-09-10T18:53:24.718Z,0.00
2017-09-10T18:55:25.043Z,0.00
2017-09-10T18:56:24.845Z,0.00
2017-09-10T18:57:26.469Z,0.00
2017-09-10T18:58:25.393Z,0.00
2017-09-10T19:00:25.017Z,0.00
2017-09-10T19:01:25.887Z,0.00
2017-09-10T19:02:25.290Z,0.00
2017-09-10T19:03:25.732Z,0.00
2017-09-10T19:04:25.078Z,0.00
2017-09-10T19:05:25.213Z,0.00
2017-09-10T19:06:25.222Z,0.00
2017-09-10T19:07:25.627Z,0.00
2017-09-10T19:09:25.330Z,0.00
2017-09-10T19:10:25.320Z,0.00
2017-09-10T19:11:25.293Z,0.00
2017-09-10T19:12:25.364Z,0.00
2017-09-10T19:14:25.906Z,0.00
2017-09-10T19:15:25.551Z,0.00
2017-09-10T19:16:25.561Z,0.00
2017-09-10T19:17:25.740Z,0.00
2017-09-10T19:18:25.882Z,0.00
2017-09-10T19:19:26.705Z,0.00
2017-09-10T19:21:25.778Z,0.00
2017-09-10T19:22:25.712Z,0.00
2017-09-10T19:23:25.745Z,0.00
2017-09-10T19:24:25.940Z,0.00
2017-09-10T19:25:25.835Z,0.00
2017-09-10T19:26:25.868Z,0.00
2017-09-10T19:27:26.178Z,0.00
2017-09-10T19:28:25.829Z,0.00
2017-09-10T19:29:25.942Z,0.00
2017-09-10T19:30:25.952Z,0.00
2017-09-10T19:31:25.968Z,0.00
2017-09-10T19:32:25.987Z,0.00
2017-09-10T19:33:26.368Z,0.00
2017-09-10T19:34:26.163Z,0.00
2017-09-10T19:35:26.070Z,0.00
2017-09-10T19:36:26.252Z,0.00
2017-09-10T19:37:26.151Z,0.00
2017-09-10T19:38:26.228Z,0.00
2017-09-10T19:39:26.602Z,0.00
2017-09-10T19:40:26.247Z,0.00
2017-09-10T19:41:26.304Z,0.00
2017-09-10T19:42:26.366Z,0.00
2017-09-10T19:43:26.443Z,0.00
2017-09-10T19:44:26.465Z,0.00
2017-09-10T19:45:26.784Z,0.00
2017-09-10T19:46:26.547Z,0.00
2017-09-10T19:47:26.546Z,0.00
2017-09-10T19:48:26.583Z,8.00
2017-09-10T19:49:26.573Z,4.00
2017-09-10T19:50:26.668Z,4.00
2017-09-10T19:51:26.983Z,4.00
2017-09-10T19:52:26.667Z,4.00
2017-09-10T19:53:26.718Z,4.00
2017-09-10T19:54:26.811Z,4.00
2017-09-10T19:55:26.851Z,4.00
2017-09-10T19:56:26.893Z,4.00
2017-09-10T19:57:27.221Z,4.00
2017-09-10T19:58:26.975Z,4.00
2017-09-10T19:59:26.989Z,4.00
2017-09-10T20:00:26.949Z,4.00
2017-09-10T20:01:27.056Z,4.00
2017-09-10T20:02:27.068Z,4.00
2017-09-10T20:03:27.077Z,4.00
2017-09-10T20:04:27.478Z,4.00
2017-09-10T20:06:33.823Z,4.00
2017-09-10T20:07:33.889Z,4.00
2017-09-10T20:08:33.868Z,0.00
2017-09-10T20:09:33.907Z,0.00
2017-09-10T20:10:33.991Z,4.00
2017-09-10T20:11:34.279Z,4.00
2017-09-10T20:12:34.010Z,4.00
2017-09-10T20:13:34.046Z,4.00
2017-09-10T20:14:34.133Z,4.00
2017-09-10T20:15:34.173Z,4.00
2017-09-10T20:16:34.201Z,4.00
2017-09-10T20:17:34.485Z,4.00
2017-09-10T20:18:34.221Z,4.00
2017-09-10T20:19:34.267Z,4.00
2017-09-10T20:20:34.288Z,4.00
2017-09-10T20:21:34.383Z,4.00
2017-09-10T20:22:34.357Z,4.00
2017-09-10T20:23:34.698Z,4.00
2017-09-10T20:24:34.427Z,4.00
2017-09-10T20:25:34.549Z,4.00
2017-09-10T20:26:34.503Z,4.00
2017-09-10T20:27:34.533Z,4.00
2017-09-10T20:28:34.580Z,4.00
2017-09-10T20:29:34.900Z,4.00
2017-09-10T20:30:34.686Z,8.00
2017-09-10T20:31:34.671Z,8.00
2017-09-10T20:32:34.708Z,8.00
2017-09-10T20:33:34.761Z,8.00
2017-09-10T20:34:34.778Z,8.00
2017-09-10T20:35:35.124Z,8.00
2017-09-10T20:36:34.918Z,8.00
2017-09-10T20:37:34.897Z,8.00
2017-09-10T20:39:34.955Z,8.00
2017-09-10T20:40:35.089Z,8.00
2017-09-10T20:41:35.324Z,8.00
2017-09-10T20:42:35.066Z,8.00
2017-09-10T20:43:35.096Z,8.00
2017-09-10T20:44:35.152Z,8.00
2017-09-10T20:45:35.315Z,8.00
2017-09-10T20:46:35.199Z,8.00
2017-09-10T20:47:35.549Z,8.00
2017-09-10T20:48:35.268Z,8.00
2017-09-10T20:49:35.305Z,8.00
2017-09-10T20:50:35.343Z,8.00
2017-09-10T20:51:35.579Z,8.00
2017-09-10T20:52:35.498Z,8.00
2017-09-10T20:53:35.768Z,8.00
2017-09-10T20:54:35.483Z,8.00
2017-09-10T20:55:35.515Z,8.00
2017-09-10T20:56:35.574Z,8.00
2017-09-10T20:57:35.588Z,8.00
2017-09-10T20:58:35.627Z,8.00
2017-09-10T20:59:35.958Z,8.00
2017-09-10T21:00:35.699Z,8.00
2017-09-10T21:01:35.725Z,8.00
2017-09-10T21:02:35.761Z,8.00
2017-09-10T21:03:35.820Z,8.00
2017-09-10T21:04:35.831Z,8.00
2017-09-10T21:05:36.173Z,8.00
2017-09-10T21:06:35.902Z,8.00
2017-09-10T21:07:35.991Z,8.00
2017-09-10T21:08:35.969Z,8.00
2017-09-10T21:09:36.010Z,8.00
2017-09-10T21:10:36.049Z,8.00
2017-09-10T21:11:36.381Z,8.00
2017-09-10T21:12:36.112Z,8.00
2017-09-10T21:13:36.253Z,8.00
2017-09-10T21:14:36.186Z,8.00
2017-09-10T21:15:36.217Z,8.00
2017-09-10T21:16:36.256Z,8.00
2017-09-10T21:17:36.593Z,8.00
2017-09-10T21:18:36.327Z,8.00
2017-09-10T21:19:36.356Z,8.00
2017-09-10T21:20:36.396Z,8.00
2017-09-10T21:21:36.432Z,8.00
2017-09-10T21:22:36.472Z,8.00
2017-09-10T21:23:36.818Z,8.00
2017-09-10T21:24:36.533Z,8.00
2017-09-10T21:25:36.573Z,8.00
2017-09-10T21:26:36.602Z,8.00
2017-09-10T21:27:36.641Z,8.00
2017-09-10T21:28:36.925Z,8.00
2017-09-10T21:29:37.009Z,8.00
2017-09-10T21:30:36.750Z,8.00
2017-09-10T21:31:36.779Z,8.00
2017-09-10T21:32:36.816Z,8.00
2017-09-10T21:33:36.865Z,0.00
2017-09-10T21:34:36.989Z,0.00
2017-09-10T21:35:37.221Z,0.00
2017-09-10T21:36:36.957Z,0.00
2017-09-10T21:38:37.052Z,0.00
2017-09-10T21:39:37.111Z,0.00
2017-09-10T21:40:37.098Z,0.00
2017-09-10T21:41:37.450Z,0.00
2017-09-10T21:42:37.221Z,0.00
2017-09-10T21:45:37.294Z,0.00
2017-09-10T21:46:37.325Z,0.00
2017-09-10T21:47:37.345Z,0.00
2017-09-10T21:48:37.679Z,0.00
2017-09-10T21:49:37.462Z,0.00
2017-09-10T21:50:37.447Z,0.00
2017-09-10T21:53:37.658Z,0.00
2017-09-10T21:54:37.591Z,0.00
2017-09-10T21:55:37.925Z,0.00
2017-09-10T21:56:37.665Z,0.00
2017-09-10T21:57:37.695Z,0.00
2017-09-10T21:58:37.741Z,0.00
2017-09-10T21:59:38.014Z,0.00
2017-09-10T22:00:37.810Z,0.00
2017-09-10T22:01:37.864Z,0.00
2017-09-10T22:02:38.169Z,0.00
2017-09-10T22:03:37.911Z,0.00
2017-09-10T22:04:37.994Z,0.00
2017-09-10T22:05:37.979Z,0.00
2017-09-10T22:06:38.017Z,0.00
2017-09-10T22:07:38.049Z,0.00
2017-09-10T22:08:38.083Z,0.00
2017-09-10T22:09:38.414Z,0.00
2017-09-10T22:10:38.158Z,0.00
2017-09-10T22:11:38.186Z,0.00
2017-09-10T22:12:38.226Z,0.00
2017-09-10T22:13:38.257Z,0.00
2017-09-10T22:14:38.343Z,0.00
2017-09-10T22:15:38.330Z,0.00
2017-09-10T22:16:38.665Z,0.00
2017-09-10T22:17:38.404Z,0.00
2017-09-10T22:18:38.433Z,0.00
2017-09-10T22:19:38.468Z,0.00
2017-09-10T22:20:38.507Z,0.00
2017-09-10T22:21:38.539Z,0.00
2017-09-10T22:22:38.577Z,0.00
2017-09-10T22:23:38.923Z,0.00
2017-09-10T22:24:38.665Z,0.00
2017-09-10T22:25:38.746Z,0.00